Arletta, Washington
Current Conditions -  °F | °C
As of 8:25 AM on Friday 31 Oct 2014 (Local Time) from KTIW Reporting Station
Light Rain Light Rain  
Wind Chill: 51°   Ceiling: 700
Heat Index: 51°   Visibility: 1.5mi
Dew Point: 49°   Wind: 8mph
Humidity: 92%   Direction: 240°WSW
Pressure: 29.74"   Gusts: NA
Location:  47.2986°N, 122.616°W
Report Text: KTIW 311525Z 24007KT 190V270 1 1/2SM -RA BR FEW003 BKN007 OVC047 11/09 A2974 RMK AO2 P0007 T01060094
Loading
Personal Weather Stations






























Interactive Weather Map
Tropical Storm Tracking
New forecast layout! Learn more

10-Day Weather Forecast

Advertisements
Track Severe Weather on mobile